Time;durP1;ratioP1;P1;durP2;ratioP2;P2;SDS_P1;SDS_P2;PMS_P1;PMS_P2;Temp;Humidity;BMP_temperature;BMP_pressure;BME280_temperature;BME280_humidity;BME280_pressure;Samples;Min_cycle;Max_cycle;Signal;HPM_P1;HPM_P2
2021/10/19 00:00:37;;;;;;;10.82;7.60;;;13.30;99.90;;;;;;5117075;27;20041;-80
2021/10/19 00:03:04;;;;;;;9.82;7.35;;;13.30;99.90;;;;;;5112359;27;20027;-80
2021/10/19 00:05:30;;;;;;;9.77;7.45;;;13.30;99.90;;;;;;5097361;27;20071;-80
2021/10/19 00:07:56;;;;;;;7.93;6.47;;;13.30;99.90;;;;;;5111641;27;20034;-80
2021/10/19 00:10:23;;;;;;;8.90;7.40;;;13.30;99.90;;;;;;5093327;27;20054;-80
2021/10/19 00:12:49;;;;;;;8.63;6.47;;;13.20;99.90;;;;;;5095931;27;20043;-80
2021/10/19 00:15:18;;;;;;;6.13;5.53;;;13.20;99.90;;;;;;5126340;27;20043;-79
2021/10/19 00:17:45;;;;;;;8.43;6.90;;;13.20;99.90;;;;;;5086106;27;20035;-80
2021/10/19 00:20:14;;;;;;;8.02;6.53;;;13.20;99.90;;;;;;5114278;27;20041;-80
2021/10/19 00:22:40;;;;;;;7.72;6.65;;;13.20;99.90;;;;;;5115343;27;20046;-80
2021/10/19 00:25:09;;;;;;;8.00;6.65;;;13.20;99.90;;;;;;5080600;27;20400;-80
2021/10/19 00:27:36;;;;;;;9.23;6.85;;;13.20;99.90;;;;;;5106316;27;20046;-80
2021/10/19 00:30:05;;;;;;;7.13;6.28;;;13.20;99.90;;;;;;5082821;27;20039;-80
2021/10/19 00:32:32;;;;;;;7.93;6.57;;;13.20;99.90;;;;;;5111975;27;20040;-80
2021/10/19 00:34:58;;;;;;;8.05;6.65;;;13.20;99.90;;;;;;5098348;27;20783;-80
2021/10/19 00:37:25;;;;;;;8.20;6.40;;;13.20;99.90;;;;;;5115329;27;20510;-80
2021/10/19 00:39:51;;;;;;;8.75;6.75;;;13.20;99.90;;;;;;5093247;27;20039;-79
2021/10/19 00:42:17;;;;;;;9.13;6.75;;;13.20;99.90;;;;;;5096059;27;20035;-80
2021/10/19 00:44:44;;;;;;;10.02;6.90;;;13.20;99.90;;;;;;5113034;27;20812;-79
2021/10/19 00:47:12;;;;;;;12.27;7.93;;;13.20;99.90;;;;;;5115394;27;20043;-80
2021/10/19 00:49:39;;;;;;;8.75;6.75;;;13.10;99.90;;;;;;5109027;27;20050;-79
2021/10/19 00:52:05;;;;;;;10.75;7.47;;;13.10;99.90;;;;;;5092932;27;20035;-80
2021/10/19 00:54:32;;;;;;;10.90;7.97;;;13.10;99.90;;;;;;5074560;27;20289;-80
2021/10/19 00:56:59;;;;;;;8.38;6.78;;;13.10;99.90;;;;;;5112444;27;20027;-80
2021/10/19 00:59:25;;;;;;;8.68;6.97;;;13.10;99.90;;;;;;5127042;27;20042;-79
2021/10/19 01:01:52;;;;;;;7.03;6.32;;;13.10;99.90;;;;;;5093954;27;20377;-79
2021/10/19 01:04:18;;;;;;;10.65;7.30;;;13.10;99.90;;;;;;5076872;27;20036;-79
2021/10/19 01:06:45;;;;;;;8.93;7.32;;;13.10;99.90;;;;;;5099409;27;20048;-79
2021/10/19 01:09:11;;;;;;;7.95;7.10;;;13.10;99.90;;;;;;5090181;27;20035;-76
2021/10/19 01:11:38;;;;;;;8.57;7.18;;;13.10;99.90;;;;;;5119620;27;20035;-76
2021/10/19 01:14:05;;;;;;;8.40;7.20;;;13.10;99.90;;;;;;5106735;27;20038;-75
2021/10/19 01:16:31;;;;;;;8.23;6.43;;;13.10;99.90;;;;;;5121097;27;20043;-75
2021/10/19 01:18:58;;;;;;;7.70;6.47;;;13.20;99.90;;;;;;5111892;27;20027;-76
2021/10/19 01:21:24;;;;;;;9.20;7.07;;;13.20;99.90;;;;;;5110436;27;20027;-76
2021/10/19 01:23:51;;;;;;;7.88;7.05;;;13.10;99.90;;;;;;5106027;27;20031;-75
2021/10/19 01:26:17;;;;;;;10.15;7.20;;;13.10;99.90;;;;;;5094863;27;20044;-76
2021/10/19 01:28:44;;;;;;;7.78;6.85;;;13.20;99.90;;;;;;5109855;27;20407;-76
2021/10/19 01:31:12;;;;;;;7.95;7.03;;;13.20;99.90;;;;;;5093847;27;20400;-75
2021/10/19 01:33:39;;;;;;;7.95;7.00;;;13.20;99.90;;;;;;5112899;27;20031;-75
2021/10/19 01:36:07;;;;;;;8.68;7.00;;;13.20;99.90;;;;;;5109860;27;20027;-76
2021/10/19 01:38:34;;;;;;;11.48;6.43;;;13.20;99.90;;;;;;5094066;27;20063;-76
2021/10/19 01:41:02;;;;;;;8.68;6.53;;;13.20;99.90;;;;;;5126488;27;20031;-76
2021/10/19 01:43:29;;;;;;;9.98;6.63;;;13.20;99.90;;;;;;5104360;27;20042;-75
2021/10/19 01:45:59;;;;;;;8.63;6.13;;;13.20;99.90;;;;;;5110659;27;20482;-75
2021/10/19 01:48:30;;;;;;;6.72;6.03;;;13.20;99.90;;;;;;5110388;27;20470;-75
2021/10/19 01:50:56;;;;;;;6.60;5.95;;;13.20;99.90;;;;;;5122005;27;20023;-75
2021/10/19 01:53:23;;;;;;;9.05;6.75;;;13.20;99.90;;;;;;5079696;27;20034;-75
2021/10/19 01:55:50;;;;;;;8.50;6.63;;;13.20;99.90;;;;;;5117085;27;20036;-75
2021/10/19 01:58:24;;;;;;;9.05;6.32;;;13.20;99.90;;;;;;5125588;27;20026;-76
2021/10/19 02:00:53;;;;;;;11.55;6.82;;;13.30;99.90;;;;;;5080557;27;20022;-75
2021/10/19 02:03:19;;;;;;;12.30;6.82;;;13.30;99.90;;;;;;5121744;27;20386;-75
2021/10/19 02:05:47;;;;;;;8.25;6.40;;;13.30;99.90;;;;;;5117149;27;20498;-75
2021/10/19 02:08:13;;;;;;;7.63;6.60;;;13.30;99.90;;;;;;5117760;27;20525;-76
2021/10/19 02:10:40;;;;;;;7.22;6.45;;;13.30;99.90;;;;;;5076736;27;20039;-75
2021/10/19 02:13:07;;;;;;;8.45;6.63;;;13.40;99.90;;;;;;5107088;27;20036;-75
2021/10/19 02:15:34;;;;;;;7.68;6.57;;;13.40;99.90;;;;;;5113340;27;20571;-75
2021/10/19 02:18:02;;;;;;;8.85;7.15;;;13.40;99.90;;;;;;5093051;27;20035;-75
2021/10/19 02:20:29;;;;;;;9.60;7.18;;;13.40;99.90;;;;;;5106525;27;20058;-75
2021/10/19 02:22:56;;;;;;;8.15;7.07;;;13.50;99.90;;;;;;5109767;27;20574;-75
2021/10/19 02:25:22;;;;;;;10.18;7.15;;;13.50;99.90;;;;;;5120206;27;20058;-75
2021/10/19 02:27:49;;;;;;;7.80;6.75;;;13.50;99.90;;;;;;5119974;27;20030;-75
2021/10/19 02:30:16;;;;;;;10.25;7.15;;;13.50;99.90;;;;;;5102577;27;20036;-76
2021/10/19 02:32:43;;;;;;;8.75;7.10;;;13.50;99.90;;;;;;5109749;27;20043;-76
2021/10/19 02:35:15;;;;;;;12.82;7.07;;;13.50;99.90;;;;;;5111196;27;20050;-76
2021/10/19 02:37:42;;;;;;;9.25;6.85;;;13.50;99.90;;;;;;5106069;27;20479;-75
2021/10/19 02:40:10;;;;;;;8.45;7.13;;;13.50;99.90;;;;;;5107505;27;20534;-75
2021/10/19 02:42:38;;;;;;;9.52;7.57;;;13.60;99.90;;;;;;5106797;27;20027;-75
2021/10/19 02:45:07;;;;;;;7.70;6.32;;;13.60;99.90;;;;;;5107046;27;20039;-76
2021/10/19 02:47:34;;;;;;;8.57;6.93;;;13.60;99.90;;;;;;5110191;27;20054;-76
2021/10/19 02:50:01;;;;;;;7.57;6.53;;;13.60;99.90;;;;;;5109676;27;20396;-75
2021/10/19 02:52:27;;;;;;;9.10;7.25;;;13.70;99.90;;;;;;5108234;27;20038;-75
2021/10/19 02:54:54;;;;;;;9.65;8.30;;;13.70;99.90;;;;;;5123282;27;20048;-76
2021/10/19 02:57:21;;;;;;;7.75;6.25;;;13.70;99.90;;;;;;5091078;27;20044;-75
2021/10/19 02:59:48;;;;;;;10.70;8.57;;;13.70;99.90;;;;;;5090484;28;20039;-76
2021/10/19 03:02:14;;;;;;;8.27;7.32;;;13.70;99.90;;;;;;5124443;27;20038;-75
2021/10/19 03:04:41;;;;;;;8.90;8.00;;;13.70;99.90;;;;;;5111444;27;20037;-76
2021/10/19 03:07:07;;;;;;;9.27;6.60;;;13.70;99.90;;;;;;5119174;27;20445;-76
2021/10/19 03:09:34;;;;;;;7.72;6.55;;;13.70;99.90;;;;;;5073580;27;20382;-75
2021/10/19 03:12:00;;;;;;;8.10;6.82;;;13.70;99.90;;;;;;5075464;27;20024;-75
2021/10/19 03:14:27;;;;;;;8.13;7.20;;;13.70;99.90;;;;;;5120440;27;20047;-76
2021/10/19 03:16:53;;;;;;;9.00;6.45;;;13.70;99.90;;;;;;5114797;27;20039;-75
2021/10/19 03:19:19;;;;;;;11.18;7.22;;;13.80;99.90;;;;;;5129808;27;20031;-76
2021/10/19 03:21:46;;;;;;;7.90;7.18;;;13.80;99.90;;;;;;5108536;27;20031;-76
2021/10/19 03:24:12;;;;;;;8.00;6.32;;;13.80;99.90;;;;;;5103552;27;20023;-75
2021/10/19 03:26:39;;;;;;;8.30;6.55;;;13.80;99.90;;;;;;5097586;27;20050;-76
2021/10/19 03:29:05;;;;;;;9.35;7.90;;;13.80;99.90;;;;;;5093538;27;20039;-76
2021/10/19 03:31:35;;;;;;;9.98;7.35;;;13.80;99.90;;;;;;5110337;27;20054;-76
2021/10/19 03:34:03;;;;;;;7.93;7.05;;;13.90;99.90;;;;;;5098088;27;20039;-75
2021/10/19 03:36:30;;;;;;;7.93;7.03;;;13.90;99.90;;;;;;5119828;27;20046;-76
2021/10/19 03:38:56;;;;;;;7.72;6.78;;;13.90;99.90;;;;;;5100669;27;20038;-76
2021/10/19 03:41:23;;;;;;;7.57;6.22;;;13.90;99.90;;;;;;5115096;27;20383;-75
2021/10/19 03:43:50;;;;;;;8.32;6.50;;;13.90;99.90;;;;;;5089741;28;20534;-75
2021/10/19 03:46:19;;;;;;;7.40;5.88;;;13.80;99.90;;;;;;5109261;27;20038;-76
2021/10/19 03:48:45;;;;;;;8.18;6.68;;;13.80;99.90;;;;;;5111068;27;20046;-75
2021/10/19 03:51:12;;;;;;;8.98;6.70;;;13.80;99.90;;;;;;5117320;27;20035;-76
2021/10/19 03:53:38;;;;;;;8.65;6.63;;;13.80;99.90;;;;;;5094494;27;20042;-79
2021/10/19 03:56:05;;;;;;;7.18;6.38;;;13.80;99.90;;;;;;5110322;27;20396;-79
2021/10/19 03:58:32;;;;;;;8.32;7.35;;;13.90;99.90;;;;;;5110919;27;20031;-79
2021/10/19 04:00:58;;;;;;;8.73;6.65;;;13.90;99.90;;;;;;5094288;27;20046;-78
2021/10/19 04:03:25;;;;;;;6.68;6.03;;;13.90;99.90;;;;;;5092967;27;20487;-79
2021/10/19 04:05:53;;;;;;;8.73;7.50;;;13.90;99.90;;;;;;5112537;27;20051;-79
2021/10/19 04:08:19;;;;;;;9.00;7.20;;;13.90;99.90;;;;;;5078079;27;20059;-78
2021/10/19 04:10:46;;;;;;;10.65;7.63;;;13.90;99.90;;;;;;5111220;27;20039;-79
2021/10/19 04:13:12;;;;;;;9.55;7.88;;;13.90;99.90;;;;;;5125152;27;20476;-79
2021/10/19 04:15:39;;;;;;;8.43;7.55;;;14.00;99.90;;;;;;5095989;27;20046;-80
2021/10/19 04:18:05;;;;;;;8.68;7.38;;;14.00;99.90;;;;;;5079332;27;20392;-79
2021/10/19 04:20:32;;;;;;;8.20;7.10;;;14.00;99.90;;;;;;5112356;27;20031;-79
2021/10/19 04:22:58;;;;;;;8.60;6.78;;;14.00;99.90;;;;;;5111595;27;20484;-79
2021/10/19 04:25:25;;;;;;;8.38;7.18;;;14.00;99.90;;;;;;5109697;27;20471;-80
2021/10/19 04:27:51;;;;;;;8.77;7.15;;;14.10;99.90;;;;;;5095307;27;20027;-80
2021/10/19 04:30:18;;;;;;;8.80;6.57;;;14.10;99.90;;;;;;5111894;27;20042;-80
2021/10/19 04:32:45;;;;;;;7.70;6.78;;;14.10;99.90;;;;;;5114629;27;20054;-80
2021/10/19 04:35:11;;;;;;;7.82;6.25;;;14.10;99.90;;;;;;5127989;27;20046;-80
2021/10/19 04:37:38;;;;;;;9.50;7.20;;;14.10;99.90;;;;;;5111415;27;20039;-80
2021/10/19 04:40:05;;;;;;;9.38;6.57;;;14.10;99.90;;;;;;5115857;27;20043;-80
2021/10/19 04:42:33;;;;;;;9.90;8.48;;;14.20;99.90;;;;;;5098912;27;20032;-80
2021/10/19 04:45:01;;;;;;;9.52;7.63;;;14.20;99.90;;;;;;5098622;27;20033;-80
2021/10/19 04:47:28;;;;;;;7.88;7.07;;;14.20;99.90;;;;;;5114628;27;20475;-80
2021/10/19 04:49:58;;;;;;;9.65;8.40;;;14.20;99.90;;;;;;5122297;27;20039;-80
2021/10/19 04:52:25;;;;;;;12.77;8.93;;;14.20;99.90;;;;;;5079035;27;20035;-80
2021/10/19 04:54:52;;;;;;;8.55;7.40;;;14.30;99.90;;;;;;5097987;27;20027;-80
2021/10/19 04:57:19;;;;;;;10.80;8.10;;;14.30;99.90;;;;;;5116008;27;20039;-82
2021/10/19 04:59:45;;;;;;;9.13;7.05;;;14.20;99.90;;;;;;5096996;27;20039;-82
2021/10/19 05:02:12;;;;;;;8.52;7.32;;;14.30;99.90;;;;;;5110993;27;20819;-80
2021/10/19 05:04:38;;;;;;;8.40;7.22;;;14.30;99.90;;;;;;5106128;27;20047;-80
2021/10/19 05:07:05;;;;;;;8.02;6.60;;;14.30;99.90;;;;;;5127386;27;20043;-79
2021/10/19 05:09:33;;;;;;;8.68;6.85;;;14.30;99.90;;;;;;5113230;27;20112;-79
2021/10/19 05:11:59;;;;;;;7.72;6.55;;;14.30;99.90;;;;;;5100405;27;20050;-80
2021/10/19 05:14:25;;;;;;;7.65;6.85;;;14.30;99.90;;;;;;5118890;27;20033;-77
2021/10/19 05:16:52;;;;;;;8.52;7.20;;;14.40;99.90;;;;;;5121675;27;20639;-76
2021/10/19 05:19:18;;;;;;;6.22;5.63;;;14.40;99.90;;;;;;5106567;27;20032;-77
2021/10/19 05:21:45;;;;;;;9.07;6.55;;;14.30;99.90;;;;;;5131863;27;20363;-76
2021/10/19 05:24:11;;;;;;;10.85;8.82;;;14.40;99.90;;;;;;5114021;27;20028;-80
2021/10/19 05:26:38;;;;;;;10.40;7.88;;;14.40;99.90;;;;;;5113184;27;20037;-80
2021/10/19 05:29:04;;;;;;;11.70;8.80;;;14.30;99.90;;;;;;5075612;27;20035;-80
2021/10/19 05:31:31;;;;;;;8.30;7.10;;;14.30;99.90;;;;;;5118267;27;20586;-80
2021/10/19 05:33:57;;;;;;;9.38;7.80;;;14.30;99.90;;;;;;5109271;27;20403;-79
2021/10/19 05:36:24;;;;;;;10.07;8.60;;;14.30;99.90;;;;;;5075743;27;20039;-81
2021/10/19 05:38:50;;;;;;;15.43;13.23;;;14.30;99.90;;;;;;5109419;27;20027;-78
2021/10/19 05:41:17;;;;;;;10.38;9.27;;;14.30;99.90;;;;;;5109934;27;20032;-79
2021/10/19 05:43:45;;;;;;;8.73;7.82;;;14.30;99.90;;;;;;5093306;27;20036;-82
2021/10/19 05:46:12;;;;;;;8.18;6.82;;;14.40;99.90;;;;;;5110193;27;20039;-79
2021/10/19 05:48:40;;;;;;;8.85;7.88;;;14.40;99.90;;;;;;5108088;27;20028;-80
2021/10/19 05:51:06;;;;;;;13.00;10.90;;;14.30;99.90;;;;;;5111763;27;20392;-80
2021/10/19 05:53:32;;;;;;;8.52;7.72;;;14.40;99.90;;;;;;5108913;27;20039;-80
2021/10/19 05:55:59;;;;;;;9.10;7.93;;;14.40;99.90;;;;;;5111512;27;20046;-80
2021/10/19 05:58:25;;;;;;;7.97;7.18;;;14.40;99.90;;;;;;5123185;27;20035;-79
2021/10/19 06:00:52;;;;;;;8.55;7.35;;;14.40;99.90;;;;;;5091193;27;20055;-79
2021/10/19 06:03:18;;;;;;;8.18;7.22;;;14.40;99.90;;;;;;5108513;27;20032;-79
2021/10/19 06:05:46;;;;;;;8.52;6.53;;;14.40;99.90;;;;;;5124334;27;20055;-79
2021/10/19 06:08:12;;;;;;;7.95;7.05;;;14.40;99.90;;;;;;5093661;27;20047;-79
2021/10/19 06:10:38;;;;;;;7.85;5.78;;;14.40;99.90;;;;;;5120846;27;20487;-79
2021/10/19 06:13:05;;;;;;;7.15;6.45;;;14.40;99.90;;;;;;5113617;27;20042;-79
2021/10/19 06:15:31;;;;;;;7.45;6.63;;;14.40;99.90;;;;;;5127851;27;20888;-79
2021/10/19 06:17:58;;;;;;;7.50;6.80;;;14.40;99.90;;;;;;5128421;27;20036;-79
2021/10/19 06:20:25;;;;;;;8.75;7.72;;;14.40;99.90;;;;;;5125405;27;20521;-79
2021/10/19 06:22:52;;;;;;;7.90;7.18;;;14.40;99.90;;;;;;5076486;28;20046;-79
2021/10/19 06:25:19;;;;;;;7.30;6.60;;;14.40;99.90;;;;;;5063894;27;20039;-79
2021/10/19 06:27:45;;;;;;;8.88;7.35;;;14.40;99.90;;;;;;5114610;27;20031;-79
2021/10/19 06:30:12;;;;;;;8.30;7.45;;;14.40;99.90;;;;;;5122199;27;20046;-79
2021/10/19 06:32:40;;;;;;;9.13;7.75;;;14.50;99.90;;;;;;5096290;27;20039;-79
2021/10/19 06:35:10;;;;;;;7.45;6.75;;;14.50;99.90;;;;;;5105743;27;20058;-79
2021/10/19 06:37:37;;;;;;;8.77;7.35;;;14.40;99.90;;;;;;5109445;27;20510;-79
2021/10/19 06:40:06;;;;;;;6.82;6.22;;;14.50;99.90;;;;;;5075319;27;20038;-80
2021/10/19 06:42:33;;;;;;;5.95;5.45;;;14.50;99.90;;;;;;5115560;27;20036;-80
2021/10/19 06:45:00;;;;;;;5.20;4.70;;;14.50;99.90;;;;;;5091380;27;20532;-79
2021/10/19 06:47:30;;;;;;;6.70;5.75;;;14.50;99.90;;;;;;5111203;27;20031;-79
2021/10/19 06:49:57;;;;;;;5.70;5.20;;;14.50;99.90;;;;;;5114024;27;20034;-79
2021/10/19 06:52:23;;;;;;;6.25;5.65;;;14.50;99.90;;;;;;5112722;27;20042;-79
2021/10/19 06:54:50;;;;;;;6.15;5.55;;;14.50;99.90;;;;;;5082506;27;20035;-79
2021/10/19 06:57:16;;;;;;;7.15;6.53;;;14.50;99.90;;;;;;5137979;27;20032;-79
2021/10/19 06:59:43;;;;;;;7.30;6.60;;;14.60;99.90;;;;;;5108510;27;20041;-79
2021/10/19 07:02:09;;;;;;;6.13;5.60;;;14.60;99.90;;;;;;5124468;27;20027;-79
2021/10/19 07:04:37;;;;;;;6.55;5.93;;;14.60;99.90;;;;;;5124563;27;20039;-79
2021/10/19 07:07:03;;;;;;;6.28;5.70;;;14.60;99.90;;;;;;5108823;27;20055;-79
2021/10/19 07:09:30;;;;;;;6.63;6.10;;;14.70;99.90;;;;;;5090953;27;20035;-78
2021/10/19 07:11:58;;;;;;;6.18;5.60;;;14.60;99.90;;;;;;5112592;27;20031;-78
2021/10/19 07:14:24;;;;;;;6.47;5.82;;;14.60;99.90;;;;;;5110122;27;20035;-79
2021/10/19 07:16:51;;;;;;;8.50;7.70;;;14.60;99.90;;;;;;5112328;27;21044;-78
2021/10/19 07:19:18;;;;;;;7.80;5.88;;;14.60;99.90;;;;;;5123608;27;20496;-78
2021/10/19 07:21:45;;;;;;;6.35;5.80;;;14.70;99.90;;;;;;5110217;27;20035;-78
2021/10/19 07:24:11;;;;;;;7.90;6.82;;;14.70;99.90;;;;;;5096024;27;20039;-78
2021/10/19 07:26:38;;;;;;;7.85;7.10;;;14.70;99.90;;;;;;5119465;27;20042;-78
2021/10/19 07:29:04;;;;;;;6.82;6.22;;;14.70;99.90;;;;;;5113349;27;20027;-77
2021/10/19 07:31:31;;;;;;;7.05;6.35;;;14.70;99.90;;;;;;5113699;27;20047;-77
2021/10/19 07:33:58;;;;;;;7.13;6.38;;;14.80;99.90;;;;;;5078041;27;20496;-77
2021/10/19 07:36:26;;;;;;;7.20;6.50;;;14.80;99.90;;;;;;5129922;27;20035;-77
2021/10/19 07:38:53;;;;;;;7.57;6.85;;;14.80;99.90;;;;;;5113044;27;20034;-77
2021/10/19 07:41:19;;;;;;;8.20;7.43;;;14.90;99.90;;;;;;5111142;27;20039;-77
2021/10/19 07:43:45;;;;;;;7.50;6.75;;;14.90;99.90;;;;;;5112834;27;20395;-77
2021/10/19 07:46:12;;;;;;;6.75;6.20;;;14.90;99.90;;;;;;5082146;27;20077;-77
2021/10/19 07:48:38;;;;;;;7.53;6.63;;;14.90;99.90;;;;;;5121839;27;20476;-77
2021/10/19 07:51:05;;;;;;;7.70;6.78;;;15.00;99.90;;;;;;5125746;27;20039;-77
2021/10/19 07:53:31;;;;;;;8.18;7.40;;;15.00;99.90;;;;;;5113667;27;20529;-77
2021/10/19 07:55:58;;;;;;;8.35;7.43;;;15.00;99.90;;;;;;5115326;27;20058;-77
2021/10/19 07:58:26;;;;;;;9.10;7.90;;;15.00;99.90;;;;;;5119033;27;20031;-77
2021/10/19 08:00:53;;;;;;;7.70;6.82;;;15.00;99.90;;;;;;5112717;27;20032;-77
2021/10/19 08:03:19;;;;;;;10.88;8.30;;;15.10;99.90;;;;;;5125420;27;20040;-77
2021/10/19 08:05:46;;;;;;;9.05;7.53;;;15.10;99.90;;;;;;5113584;27;20043;-77
2021/10/19 08:08:15;;;;;;;12.68;10.13;;;15.10;99.90;;;;;;5086945;27;20040;-79
2021/10/19 08:10:44;;;;;;;7.07;6.43;;;15.20;99.90;;;;;;5114599;27;20031;-77
2021/10/19 08:13:12;;;;;;;8.23;7.43;;;15.20;99.90;;;;;;5119761;27;20061;-77
2021/10/19 08:15:39;;;;;;;8.45;7.63;;;15.20;99.90;;;;;;5116154;27;20028;-77
2021/10/19 08:18:06;;;;;;;9.05;8.15;;;15.30;99.90;;;;;;5127932;27;20370;-77
2021/10/19 08:20:34;;;;;;;7.20;6.60;;;15.30;99.90;;;;;;5110781;27;20579;-77
2021/10/19 08:23:01;;;;;;;9.10;8.18;;;15.40;99.90;;;;;;5099801;27;20026;-77
2021/10/19 08:25:28;;;;;;;11.63;10.45;;;15.40;99.90;;;;;;5098715;27;20040;-76
2021/10/19 08:27:55;;;;;;;10.90;9.90;;;15.40;99.90;;;;;;5128199;27;20038;-77
2021/10/19 08:30:23;;;;;;;9.15;8.25;;;15.40;99.90;;;;;;5116131;27;20388;-76
2021/10/19 08:32:50;;;;;;;9.23;7.72;;;15.50;99.90;;;;;;5107571;27;20489;-77
2021/10/19 08:35:18;;;;;;;8.57;7.78;;;15.50;99.90;;;;;;5110426;27;20475;-76
2021/10/19 08:37:46;;;;;;;10.40;7.38;;;15.50;99.90;;;;;;5114829;27;20035;-77
2021/10/19 08:40:13;;;;;;;7.60;6.90;;;15.50;99.90;;;;;;5124203;27;20040;-77
2021/10/19 08:42:44;;;;;;;9.43;8.52;;;15.60;99.90;;;;;;5118822;27;20015;-77
2021/10/19 08:45:16;;;;;;;13.70;8.93;;;15.60;99.90;;;;;;5109748;27;20035;-77
2021/10/19 08:47:45;;;;;;;10.25;9.35;;;15.60;99.90;;;;;;5110769;27;20050;-77
2021/10/19 08:50:13;;;;;;;9.07;8.18;;;15.60;99.90;;;;;;5106509;27;20039;-77
2021/10/19 08:52:40;;;;;;;9.25;8.43;;;15.70;99.90;;;;;;5127024;27;20042;-77
2021/10/19 08:55:07;;;;;;;9.77;8.05;;;15.70;99.90;;;;;;5123674;27;20038;-77
2021/10/19 08:57:33;;;;;;;8.07;7.28;;;15.70;99.90;;;;;;5126572;27;20114;-76
2021/10/19 09:00:00;;;;;;;11.00;9.70;;;15.80;99.90;;;;;;5072102;27;20047;-77
2021/10/19 09:02:36;;;;;;;8.30;7.53;;;15.80;99.90;;;;;;5103901;27;20220;-76
2021/10/19 09:05:13;;;;;;;11.75;10.65;;;15.80;99.90;;;;;;5087347;27;20019;-77
2021/10/19 09:07:40;;;;;;;11.07;9.98;;;15.80;99.90;;;;;;5104154;27;20042;-77
2021/10/19 09:10:15;;;;;;;10.52;9.52;;;15.90;99.90;;;;;;5104248;27;20514;-75
2021/10/19 09:12:59;;;;;;;8.98;8.18;;;15.90;99.90;;;;;;5117634;27;20047;-75
2021/10/19 09:15:27;;;;;;;18.33;15.45;;;15.90;99.90;;;;;;5118655;27;20027;-75
2021/10/19 09:17:59;;;;;;;12.35;11.18;;;15.90;99.90;;;;;;5117108;27;20058;-74
2021/10/19 09:20:25;;;;;;;13.55;12.25;;;15.90;99.90;;;;;;5120053;27;20027;-74
2021/10/19 09:23:01;;;;;;;11.38;10.23;;;16.00;99.90;;;;;;5114784;27;20038;-75
2021/10/19 09:25:28;;;;;;;9.25;8.25;;;16.00;99.90;;;;;;5115305;27;20027;-75
2021/10/19 09:27:56;;;;;;;8.15;7.45;;;16.00;99.90;;;;;;5104730;27;20035;-75
2021/10/19 09:30:37;;;;;;;7.95;7.22;;;16.00;99.90;;;;;;5104357;27;20047;-75
2021/10/19 09:33:06;;;;;;;12.57;10.83;;;16.10;99.90;;;;;;5115655;27;20035;-74
2021/10/19 09:35:35;;;;;;;9.68;8.77;;;16.10;99.90;;;;;;5102477;27;20519;-75
2021/10/19 09:38:08;;;;;;;8.63;7.82;;;16.10;99.90;;;;;;5116042;27;20031;-75
2021/10/19 09:40:47;;;;;;;10.85;9.73;;;16.10;99.90;;;;;;5104052;27;20034;-75
2021/10/19 09:43:16;;;;;;;7.00;6.40;;;16.20;99.90;;;;;;5115434;27;20028;-75
2021/10/19 09:45:45;;;;;;;7.50;6.82;;;16.20;99.90;;;;;;5087802;27;20455;-75
2021/10/19 09:48:14;;;;;;;6.00;5.50;;;16.20;99.90;;;;;;5087191;27;21579;-75
2021/10/19 09:50:42;;;;;;;7.40;6.70;;;16.20;99.90;;;;;;5105586;27;20035;-75
2021/10/19 09:53:13;;;;;;;6.30;5.70;;;16.30;99.90;;;;;;5113615;27;20491;-76
2021/10/19 09:55:42;;;;;;;5.82;5.35;;;16.30;99.90;;;;;;5111781;27;20044;-76
2021/10/19 09:58:09;;;;;;;5.07;4.68;;;16.30;99.90;;;;;;5115764;27;20044;-74
2021/10/19 10:00:37;;;;;;;5.65;5.15;;;16.30;99.90;;;;;;5073126;27;20043;-74
2021/10/19 10:03:04;;;;;;;4.43;4.13;;;16.40;99.90;;;;;;5112991;27;20043;-75
2021/10/19 10:05:32;;;;;;;5.82;5.32;;;16.40;99.90;;;;;;5118753;27;20046;-74
2021/10/19 10:08:00;;;;;;;4.97;4.47;;;16.40;99.90;;;;;;5123269;27;20038;-74
2021/10/19 10:10:27;;;;;;;4.78;4.28;;;16.50;99.90;;;;;;5115433;27;20031;-74
2021/10/19 10:13:04;;;;;;;4.18;3.88;;;16.50;99.90;;;;;;5103819;28;20041;-74
2021/10/19 10:15:34;;;;;;;4.40;4.00;;;16.50;99.90;;;;;;5116894;27;20582;-74
2021/10/19 10:18:03;;;;;;;3.25;2.95;;;16.50;99.90;;;;;;5101074;27;20035;-74
2021/10/19 10:20:50;;;;;;;4.85;4.45;;;16.50;99.90;;;;;;5106375;27;20039;-74
2021/10/19 10:23:23;;;;;;;4.38;3.90;;;16.60;99.90;;;;;;5114122;27;20046;-74
2021/10/19 10:25:52;;;;;;;5.22;3.70;;;16.50;99.90;;;;;;5123049;27;20039;-74
2021/10/19 10:28:29;;;;;;;3.90;3.60;;;16.60;99.90;;;;;;5123223;27;20031;-74
2021/10/19 10:30:57;;;;;;;4.43;3.78;;;16.60;99.90;;;;;;5108307;27;20039;-74
2021/10/19 10:33:35;;;;;;;3.88;3.58;;;16.60;99.90;;;;;;5121212;27;20062;-74
2021/10/19 10:36:06;;;;;;;4.93;4.53;;;16.60;99.90;;;;;;5110436;27;20039;-73
2021/10/19 10:38:33;;;;;;;4.32;3.92;;;16.70;99.90;;;;;;5121123;27;20576;-74
2021/10/19 10:41:11;;;;;;;4.35;3.95;;;16.70;99.90;;;;;;5108268;27;20380;-74
2021/10/19 10:43:38;;;;;;;4.97;4.10;;;16.70;99.90;;;;;;5109396;27;20031;-74
2021/10/19 10:46:19;;;;;;;5.07;4.38;;;16.70;99.90;;;;;;5124019;27;20028;-74
2021/10/19 10:48:46;;;;;;;4.38;3.97;;;16.80;99.90;;;;;;5092408;27;20054;-74
2021/10/19 10:51:24;;;;;;;6.75;5.97;;;16.80;99.90;;;;;;5107222;27;20031;-74
2021/10/19 10:53:50;;;;;;;4.90;4.22;;;16.90;99.90;;;;;;5114228;27;20039;-74
2021/10/19 10:56:17;;;;;;;5.03;4.55;;;16.90;99.90;;;;;;5115499;27;20378;-74
2021/10/19 10:58:44;;;;;;;5.40;4.90;;;16.90;99.90;;;;;;5115591;27;20042;-74
2021/10/19 11:01:23;;;;;;;5.97;5.38;;;16.90;99.90;;;;;;5109616;27;20031;-74
2021/10/19 11:04:06;;;;;;;5.90;4.68;;;17.00;99.90;;;;;;5119529;27;20023;-74
2021/10/19 11:06:34;;;;;;;8.55;6.45;;;17.00;99.90;;;;;;5110022;27;20055;-75
2021/10/19 11:09:11;;;;;;;9.25;7.53;;;17.10;99.90;;;;;;5089682;27;20031;-75
2021/10/19 11:11:39;;;;;;;10.18;9.10;;;17.10;99.90;;;;;;5122286;27;20031;-75
2021/10/19 11:14:16;;;;;;;9.15;6.97;;;17.00;99.90;;;;;;5088489;27;20027;-74
2021/10/19 11:16:48;;;;;;;9.90;8.30;;;17.10;99.90;;;;;;5090714;27;20455;-74
2021/10/19 11:19:21;;;;;;;8.40;7.53;;;17.10;99.90;;;;;;5121837;27;20424;-75
2021/10/19 11:21:51;;;;;;;7.95;7.00;;;17.10;99.90;;;;;;5087321;27;20032;-75
2021/10/19 11:24:21;;;;;;;9.73;8.73;;;17.10;99.90;;;;;;5077077;27;20050;-75
2021/10/19 11:26:48;;;;;;;12.52;10.90;;;17.20;99.90;;;;;;5121774;27;20039;-74
2021/10/19 11:29:15;;;;;;;13.00;11.35;;;17.20;99.90;;;;;;5118725;27;20472;-75
2021/10/19 11:31:43;;;;;;;11.07;9.98;;;17.20;99.90;;;;;;5118321;27;20723;-74
2021/10/19 11:34:10;;;;;;;12.15;9.10;;;17.30;99.90;;;;;;5108419;27;20027;-74
2021/10/19 11:36:38;;;;;;;9.55;8.55;;;17.30;99.90;;;;;;5117352;27;20039;-73
2021/10/19 11:39:14;;;;;;;7.40;6.55;;;17.40;99.90;;;;;;5091149;27;20027;-73
2021/10/19 11:41:56;;;;;;;8.98;8.00;;;17.40;99.90;;;;;;5118131;27;20575;-73
2021/10/19 11:44:27;;;;;;;8.07;6.72;;;17.50;99.90;;;;;;5097882;27;20115;-74
2021/10/19 11:46:54;;;;;;;10.98;8.77;;;17.50;99.90;;;;;;5123158;27;20050;-74
2021/10/19 11:49:22;;;;;;;13.48;9.93;;;17.50;99.90;;;;;;5075563;27;20487;-74
2021/10/19 11:51:51;;;;;;;13.43;10.70;;;17.60;99.90;;;;;;5072402;27;20403;-74
2021/10/19 11:54:19;;;;;;;10.88;9.65;;;17.50;99.90;;;;;;5124495;27;20030;-73
2021/10/19 11:57:04;;;;;;;11.80;9.60;;;17.60;99.90;;;;;;5092790;27;20031;-74
2021/10/19 11:59:41;;;;;;;16.70;12.80;;;17.60;99.90;;;;;;5121994;27;21547;-73
2021/10/19 12:02:08;;;;;;;13.55;10.43;;;17.60;99.90;;;;;;5118807;27;20031;-73
2021/10/19 12:04:45;;;;;;;11.07;9.45;;;17.60;99.90;;;;;;5105528;27;20031;-73
2021/10/19 12:07:24;;;;;;;13.85;10.60;;;17.60;99.90;;;;;;5106300;27;20055;-73
2021/10/19 12:09:50;;;;;;;14.73;11.45;;;17.70;99.90;;;;;;5107026;27;20395;-73
2021/10/19 12:12:25;;;;;;;14.52;11.43;;;17.70;99.90;;;;;;5110581;27;20027;-74
2021/10/19 12:14:55;;;;;;;17.80;12.38;;;17.70;99.90;;;;;;5118947;27;20567;-73
2021/10/19 12:17:22;;;;;;;11.98;10.07;;;17.80;99.90;;;;;;5071150;27;20408;-73
2021/10/19 12:19:55;;;;;;;15.73;10.77;;;17.80;99.90;;;;;;5117127;27;20036;-73
2021/10/19 12:22:34;;;;;;;15.02;12.13;;;17.80;99.90;;;;;;5104221;27;20050;-73
2021/10/19 12:25:04;;;;;;;13.98;11.30;;;17.70;99.90;;;;;;5119649;27;20027;-74
2021/10/19 12:27:30;;;;;;;13.35;11.82;;;17.70;99.90;;;;;;5126228;27;20472;-73
2021/10/19 12:29:57;;;;;;;12.30;10.60;;;17.70;99.90;;;;;;5134858;27;20039;-74
2021/10/19 12:32:34;;;;;;;9.98;8.88;;;17.70;99.90;;;;;;5093865;27;20068;-74
2021/10/19 12:35:02;;;;;;;13.00;10.55;;;17.70;99.90;;;;;;5129290;27;20039;-73
2021/10/19 12:37:36;;;;;;;13.18;10.80;;;17.70;99.90;;;;;;5123340;27;20044;-74
2021/10/19 12:40:06;;;;;;;13.35;10.88;;;17.60;99.90;;;;;;5113813;27;20035;-74
2021/10/19 12:42:32;;;;;;;12.73;9.73;;;17.60;99.90;;;;;;5096259;27;20039;-74
2021/10/19 12:44:59;;;;;;;9.98;8.98;;;17.60;99.90;;;;;;5128204;27;20364;-74
2021/10/19 12:47:25;;;;;;;9.98;8.05;;;17.60;99.90;;;;;;5111112;27;20395;-73